createdAt,value
2019-01-19T00:02:18.413Z,82.64
2019-01-19T00:05:48.711Z,82.25
2019-01-19T00:09:04.916Z,82.48
2019-01-19T00:12:30.482Z,80.97
2019-01-19T00:15:24.917Z,83.73
2019-01-19T00:18:44.492Z,83.28
2019-01-19T00:21:44.812Z,81.78
2019-01-19T00:24:41.936Z,83.65
2019-01-19T00:28:11.584Z,82.68
2019-01-19T00:31:26.813Z,82.42
2019-01-19T00:35:03.117Z,83.87
2019-01-19T00:38:07.728Z,82.74
2019-01-19T00:41:44.659Z,82.64
2019-01-19T00:44:56.878Z,82.36
2019-01-19T00:48:14.250Z,80.81
2019-01-19T00:51:18.972Z,81.88
2019-01-19T00:54:10.118Z,81.44
2019-01-19T00:57:17.502Z,81.42
2019-01-19T00:59:52.456Z,82.27
2019-01-19T01:03:23.508Z,81.64
2019-01-19T01:06:44.576Z,81.93
2019-01-19T01:10:01.666Z,80.22
2019-01-19T01:13:09.981Z,80.92
2019-01-19T01:16:36.062Z,81.50
2019-01-19T01:19:46.156Z,82.31
2019-01-19T01:22:58.751Z,81.25
2019-01-19T01:26:14.281Z,82.54
2019-01-19T01:30:04.361Z,82.21
2019-01-19T01:33:08.293Z,82.62
2019-01-19T01:36:21.737Z,82.29
2019-01-19T01:39:52.810Z,81.57
2019-01-19T01:43:07.883Z,80.94
2019-01-19T01:46:20.215Z,82.61
2019-01-19T01:49:57.516Z,82.79
2019-01-19T01:53:37.100Z,82.65
2019-01-19T01:56:11.917Z,81.78
2019-01-19T01:59:41.758Z,81.57
2019-01-19T02:03:15.937Z,81.56
2019-01-19T02:06:34.581Z,83.00
2019-01-19T02:09:51.934Z,84.33
2019-01-19T02:13:06.338Z,83.95
2019-01-19T02:16:35.801Z,83.28
2019-01-19T02:20:06.567Z,83.59
2019-01-19T02:23:38.154Z,83.63
2019-01-19T02:27:03.664Z,83.68
2019-01-19T02:30:05.660Z,82.66
2019-01-19T02:33:30.186Z,84.40
2019-01-19T02:36:46.717Z,83.47
2019-01-19T02:40:12.687Z,83.30
2019-01-19T02:43:48.316Z,83.98
2019-01-19T02:47:15.354Z,83.94
2019-01-19T02:50:17.375Z,83.58
2019-01-19T02:53:54.527Z,84.49
2019-01-19T02:57:17.592Z,84.02
2019-01-19T03:00:33.889Z,83.57
2019-01-19T03:04:11.502Z,83.94
2019-01-19T03:07:18.603Z,83.89
2019-01-19T03:10:28.195Z,83.56
2019-01-19T03:13:55.104Z,83.41
2019-01-19T03:17:34.077Z,83.48
2019-01-19T03:20:41.169Z,84.21
2019-01-19T03:24:28.753Z,84.00
2019-01-19T03:27:35.147Z,84.05
2019-01-19T03:30:58.931Z,82.27
2019-01-19T03:34:21.759Z,82.76
2019-01-19T03:37:49.901Z,84.50
2019-01-19T03:41:35.109Z,83.96
2019-01-19T03:45:00.291Z,84.34
2019-01-19T03:48:33.289Z,84.56
2019-01-19T03:51:26.564Z,84.15
2019-01-19T03:54:41.155Z,84.61
2019-01-19T03:57:35.756Z,84.18
2019-01-19T04:00:58.126Z,84.19
2019-01-19T04:04:04.475Z,83.05
2019-01-19T04:07:48.569Z,83.63
2019-01-19T04:10:48.628Z,82.84
2019-01-19T04:14:16.438Z,84.84
2019-01-19T04:17:40.380Z,84.64
2019-01-19T04:21:16.555Z,84.30
2019-01-19T04:23:55.255Z,83.54
2019-01-19T04:26:33.325Z,83.61
2019-01-19T04:29:01.292Z,84.52
2019-01-19T04:31:29.298Z,84.68
2019-01-19T04:33:58.315Z,84.70
2019-01-19T04:36:27.245Z,84.97
2019-01-19T04:38:55.663Z,84.54
2019-01-19T04:41:23.606Z,84.63
2019-01-19T04:43:51.841Z,83.66
2019-01-19T04:46:19.847Z,84.47
2019-01-19T04:48:48.535Z,83.58
2019-01-19T04:51:16.493Z,83.03
2019-01-19T04:53:45.116Z,84.49
2019-01-19T04:56:13.147Z,83.80
2019-01-19T04:58:41.153Z,84.70
2019-01-19T05:01:09.126Z,83.57
2019-01-19T05:03:37.441Z,83.76
2019-01-19T05:06:12.119Z,83.09
2019-01-19T05:08:35.616Z,83.09
2019-01-19T05:11:03.596Z,83.86
2019-01-19T05:13:31.624Z,84.65
2019-01-19T05:16:00.009Z,83.93
2019-01-19T05:18:27.982Z,84.32
2019-01-19T05:20:56.287Z,84.55
2019-01-19T05:23:25.251Z,84.10
2019-01-19T05:25:53.357Z,84.09
2019-01-19T05:28:21.689Z,84.82
2019-01-19T05:30:49.969Z,84.84
2019-01-19T05:33:17.902Z,84.76
2019-01-19T05:35:45.867Z,84.40
2019-01-19T05:38:14.062Z,84.40
2019-01-19T05:40:42.055Z,84.68
2019-01-19T05:43:10.061Z,84.99
2019-01-19T05:45:38.196Z,85.13
2019-01-19T05:48:06.652Z,84.61
2019-01-19T05:50:35.013Z,85.46
2019-01-19T05:53:03.042Z,85.35
2019-01-19T05:55:31.407Z,85.10
2019-01-19T05:57:59.542Z,85.12
2019-01-19T06:00:33.008Z,85.00
2019-01-19T06:03:01.425Z,85.34
2019-01-19T06:05:29.416Z,84.74
2019-01-19T06:07:57.644Z,84.62
2019-01-19T06:10:25.985Z,85.33
2019-01-19T06:12:54.326Z,84.99
2019-01-19T06:15:23.350Z,84.17
2019-01-19T06:17:51.463Z,84.06
2019-01-19T06:20:21.598Z,85.96
2019-01-19T06:22:49.585Z,85.63
2019-01-19T06:25:17.677Z,85.22
2019-01-19T06:27:45.701Z,84.92
2019-01-19T06:30:16.419Z,84.50
2019-01-19T06:32:44.711Z,84.52
2019-01-19T06:35:12.730Z,84.52
2019-01-19T06:37:41.781Z,83.92
2019-01-19T06:40:11.218Z,84.36
2019-01-19T06:42:39.289Z,83.98
2019-01-19T06:45:11.180Z,83.58
2019-01-19T06:47:39.226Z,83.97
2019-01-19T06:50:09.074Z,84.29
2019-01-19T06:52:37.055Z,83.89
2019-01-19T06:55:06.052Z,83.84
2019-01-19T06:57:35.017Z,83.29
2019-01-19T07:00:03.624Z,82.89
2019-01-19T07:02:31.779Z,83.34
2019-01-19T07:05:00.361Z,83.73
2019-01-19T07:07:28.376Z,84.04
2019-01-19T07:09:57.069Z,83.68
2019-01-19T07:12:25.328Z,83.00
2019-01-19T07:14:53.332Z,82.56
2019-01-19T07:17:23.106Z,82.47
2019-01-19T07:19:51.145Z,81.79
2019-01-19T07:22:19.058Z,82.32
2019-01-19T07:24:47.299Z,82.92
2019-01-19T07:27:15.737Z,82.61
2019-01-19T07:29:43.715Z,82.49
2019-01-19T07:32:11.720Z,82.16
2019-01-19T07:34:39.819Z,82.55
2019-01-19T07:37:09.878Z,82.03
2019-01-19T07:39:38.972Z,82.06
2019-01-19T07:42:07.208Z,82.67
2019-01-19T07:44:35.213Z,82.32
2019-01-19T07:47:04.166Z,80.80
2019-01-19T07:49:32.192Z,82.13
2019-01-19T07:52:00.560Z,81.10
2019-01-19T07:54:28.433Z,79.59
2019-01-19T07:56:56.715Z,78.71
2019-01-19T07:59:24.755Z,78.33
2019-01-19T08:01:53.057Z,79.11
2019-01-19T08:04:21.106Z,79.06
2019-01-19T08:06:49.101Z,78.95
2019-01-19T08:09:17.181Z,79.37
2019-01-19T08:11:45.556Z,79.40
2019-01-19T08:14:13.871Z,79.46
2019-01-19T08:16:42.225Z,79.12
2019-01-19T08:19:10.182Z,78.42
2019-01-19T08:21:39.360Z,77.90
2019-01-19T08:24:08.015Z,77.92
2019-01-19T08:26:36.643Z,77.41
2019-01-19T08:29:06.120Z,77.09
2019-01-19T08:31:34.363Z,76.69
2019-01-19T08:34:03.822Z,77.56
2019-01-19T08:36:32.082Z,77.20
2019-01-19T08:39:00.399Z,77.64
2019-01-19T08:41:28.503Z,77.90
2019-01-19T08:43:59.308Z,78.36
2019-01-19T08:46:27.440Z,77.28
2019-01-19T08:48:55.349Z,75.11
2019-01-19T08:51:23.381Z,74.86
2019-01-19T08:53:53.619Z,74.63
2019-01-19T08:56:23.970Z,73.38
2019-01-19T08:58:53.169Z,73.83
2019-01-19T09:01:21.282Z,75.37
2019-01-19T09:03:49.327Z,76.01
2019-01-19T09:06:18.255Z,74.94
2019-01-19T09:08:46.250Z,75.57
2019-01-19T09:11:16.845Z,75.18
2019-01-19T09:13:44.930Z,72.80
2019-01-19T09:16:15.068Z,74.06
2019-01-19T09:18:43.194Z,72.16
2019-01-19T09:21:12.572Z,70.78
2019-01-19T09:24:01.088Z,70.73
2019-01-19T09:26:29.350Z,70.43
2019-01-19T09:28:57.612Z,70.50
2019-01-19T09:31:25.703Z,71.75
2019-01-19T09:33:55.816Z,69.08
2019-01-19T09:36:23.808Z,68.19
2019-01-19T09:38:53.110Z,67.89
2019-01-19T09:41:21.316Z,70.56
2019-01-19T09:43:49.760Z,69.13
2019-01-19T09:46:17.831Z,69.60
2019-01-19T09:48:46.938Z,68.78
2019-01-19T09:51:17.397Z,69.81
2019-01-19T09:53:45.259Z,69.22
2019-01-19T09:56:13.967Z,68.02
2019-01-19T09:58:43.190Z,65.36
2019-01-19T10:01:13.642Z,65.26
2019-01-19T10:03:41.973Z,64.21
2019-01-19T10:06:10.144Z,64.12
2019-01-19T10:08:39.325Z,63.78
2019-01-19T10:11:07.695Z,64.66
2019-01-19T10:13:35.801Z,65.26
2019-01-19T10:16:03.831Z,63.71
2019-01-19T10:18:31.906Z,63.93
2019-01-19T10:21:00.125Z,63.52
2019-01-19T10:23:28.267Z,62.53
2019-01-19T10:25:56.812Z,63.66
2019-01-19T10:28:25.085Z,62.81
2019-01-19T10:30:53.291Z,63.29
2019-01-19T10:33:22.236Z,63.27
2019-01-19T10:35:50.596Z,63.04
2019-01-19T10:38:19.037Z,64.47
2019-01-19T10:40:47.373Z,62.27
2019-01-19T10:43:18.544Z,61.73
2019-01-19T10:45:46.547Z,63.49
2019-01-19T10:48:14.511Z,62.34
2019-01-19T10:50:49.540Z,61.02
2019-01-19T10:53:18.659Z,61.44
2019-01-19T10:55:46.755Z,63.73
2019-01-19T10:58:14.754Z,62.19
2019-01-19T11:00:44.789Z,60.76
2019-01-19T11:03:17.003Z,62.12
2019-01-19T11:05:45.058Z,62.10
2019-01-19T11:08:13.307Z,62.24
2019-01-19T11:10:41.441Z,62.99
2019-01-19T11:13:09.410Z,61.60
2019-01-19T11:15:37.308Z,61.35
2019-01-19T11:18:07.494Z,61.63
2019-01-19T11:20:36.589Z,61.38
2019-01-19T11:23:04.678Z,62.44
2019-01-19T11:25:32.842Z,62.06
2019-01-19T11:28:01.015Z,63.02
2019-01-19T11:30:30.743Z,62.08
2019-01-19T11:32:58.926Z,62.53
2019-01-19T11:35:26.955Z,63.16
2019-01-19T11:37:55.014Z,63.71
2019-01-19T11:40:25.805Z,63.45
2019-01-19T11:42:53.883Z,63.91
2019-01-19T11:45:22.113Z,63.95
2019-01-19T11:47:50.211Z,63.18
2019-01-19T11:50:18.158Z,63.02
2019-01-19T11:52:46.970Z,63.01
2019-01-19T11:55:18.036Z,63.25
2019-01-19T11:57:47.970Z,63.39
2019-01-19T12:00:19.169Z,63.80
2019-01-19T12:02:47.184Z,63.86
2019-01-19T12:05:15.557Z,63.66
2019-01-19T12:07:43.527Z,64.54
2019-01-19T12:10:18.645Z,63.90
2019-01-19T12:12:50.783Z,64.12
2019-01-19T12:15:18.935Z,64.10
2019-01-19T12:17:47.555Z,63.30
2019-01-19T12:20:25.862Z,63.99
2019-01-19T12:22:53.988Z,64.43
2019-01-19T12:25:22.936Z,63.74
2019-01-19T12:27:51.422Z,63.13
2019-01-19T12:30:22.667Z,63.35
2019-01-19T12:32:51.008Z,64.32
2019-01-19T12:35:19.219Z,64.46
2019-01-19T12:37:47.474Z,64.80
2019-01-19T12:40:17.892Z,65.11
2019-01-19T12:42:47.124Z,64.18
2019-01-19T12:45:25.870Z,63.76
2019-01-19T12:47:53.864Z,64.84
2019-01-19T12:50:24.099Z,64.95
2019-01-19T12:52:53.172Z,64.89
2019-01-19T12:55:21.596Z,63.77
2019-01-19T12:57:49.568Z,64.01
2019-01-19T13:00:19.804Z,66.27
2019-01-19T13:02:48.018Z,63.96
2019-01-19T13:05:22.034Z,64.44
2019-01-19T13:07:49.991Z,63.80
2019-01-19T13:10:24.587Z,63.54
2019-01-19T13:12:59.858Z,63.95
2019-01-19T13:16:23.648Z,63.14
2019-01-19T13:19:31.044Z,63.93
2019-01-19T13:22:52.946Z,62.21
2019-01-19T13:26:10.048Z,63.80
2019-01-19T13:29:59.924Z,64.72
2019-01-19T13:33:11.895Z,64.17
2019-01-19T13:36:53.644Z,63.75
2019-01-19T13:40:07.730Z,63.27
2019-01-19T13:43:44.169Z,63.29
2019-01-19T13:47:24.827Z,63.19
2019-01-19T13:51:05.720Z,64.54
2019-01-19T13:54:50.655Z,63.01
2019-01-19T13:58:13.568Z,63.04
2019-01-19T14:01:39.985Z,63.75
2019-01-19T14:04:54.144Z,63.38
2019-01-19T14:08:05.524Z,63.76
2019-01-19T14:11:10.763Z,63.21
2019-01-19T14:14:41.919Z,63.32
2019-01-19T14:18:01.799Z,63.28
2019-01-19T14:21:29.841Z,64.29
2019-01-19T14:25:05.167Z,64.66
2019-01-19T14:28:32.931Z,64.30
2019-01-19T14:32:08.453Z,63.53
2019-01-19T14:34:52.953Z,64.20
2019-01-19T14:38:07.645Z,63.00
2019-01-19T14:40:49.514Z,62.79
2019-01-19T14:44:02.552Z,62.53
2019-01-19T14:46:52.229Z,62.04
2019-01-19T14:50:11.948Z,61.91
2019-01-19T14:53:44.098Z,62.53
2019-01-19T14:57:03.867Z,62.44
2019-01-19T15:00:44.468Z,63.54
2019-01-19T15:04:11.751Z,62.81
2019-01-19T15:07:38.342Z,63.12
2019-01-19T15:10:50.482Z,63.82
2019-01-19T15:14:14.550Z,62.81
2019-01-19T15:17:16.516Z,62.09
2019-01-19T15:20:19.349Z,64.41
2019-01-19T15:23:38.248Z,62.35
2019-01-19T15:26:50.232Z,64.26
2019-01-19T15:30:25.616Z,61.64
2019-01-19T15:33:55.905Z,61.80
2019-01-19T15:37:33.349Z,62.38
2019-01-19T15:41:14.452Z,62.53
2019-01-19T15:44:26.650Z,63.21
2019-01-19T15:48:05.088Z,63.63
2019-01-19T15:51:08.526Z,64.68
2019-01-19T15:53:50.960Z,63.97
2019-01-19T15:57:07.322Z,63.21
2019-01-19T16:00:41.827Z,63.12
2019-01-19T16:04:25.423Z,64.11
2019-01-19T16:07:31.901Z,64.21
2019-01-19T16:11:01.447Z,63.49
2019-01-19T16:14:22.318Z,63.57
2019-01-19T16:17:41.294Z,63.89
2019-01-19T16:21:06.570Z,64.27
2019-01-19T16:24:13.793Z,64.36
2019-01-19T16:27:52.036Z,64.00
2019-01-19T16:31:27.644Z,64.32
2019-01-19T16:35:21.597Z,65.44
2019-01-19T16:38:35.140Z,65.29
2019-01-19T16:41:57.188Z,65.97
2019-01-19T16:45:15.961Z,68.18
2019-01-19T16:48:40.899Z,67.79
2019-01-19T16:52:02.369Z,68.25
2019-01-19T16:54:58.207Z,68.49
2019-01-19T16:58:08.046Z,69.51
2019-01-19T17:01:39.304Z,69.21
2019-01-19T17:04:52.325Z,69.63
2019-01-19T17:08:06.292Z,69.60
2019-01-19T17:11:06.001Z,69.73
2019-01-19T17:14:24.250Z,69.84
2019-01-19T17:18:08.221Z,69.93
2019-01-19T17:21:57.730Z,71.14
2019-01-19T17:25:02.815Z,71.20
2019-01-19T17:29:01.940Z,71.03
2019-01-19T17:31:54.573Z,72.56
2019-01-19T17:34:53.353Z,71.72
2019-01-19T17:38:22.857Z,72.19
2019-01-19T17:41:40.571Z,72.15
2019-01-19T17:45:11.409Z,72.78
2019-01-19T17:48:26.673Z,72.78
2019-01-19T17:51:07.080Z,75.24
2019-01-19T17:54:00.993Z,74.13
2019-01-19T17:56:58.547Z,72.61
2019-01-19T18:00:03.762Z,72.87
2019-01-19T18:03:29.700Z,73.56
2019-01-19T18:06:45.553Z,73.25
2019-01-19T18:09:50.556Z,74.43
2019-01-19T18:12:58.990Z,73.29
2019-01-19T18:16:01.067Z,75.29
2019-01-19T18:19:07.825Z,73.65
2019-01-19T18:23:01.345Z,73.06
2019-01-19T18:25:49.697Z,74.77
2019-01-19T18:28:33.119Z,73.91
2019-01-19T18:32:08.540Z,73.25
2019-01-19T18:35:24.879Z,73.73
2019-01-19T18:38:33.684Z,73.70
2019-01-19T18:41:42.457Z,74.42
2019-01-19T18:44:59.545Z,74.71
2019-01-19T18:47:51.812Z,74.71
2019-01-19T18:51:23.626Z,74.72
2019-01-19T18:54:56.467Z,76.19
2019-01-19T18:58:35.628Z,75.07
2019-01-19T19:02:01.426Z,76.33
2019-01-19T19:05:31.715Z,76.55
2019-01-19T19:09:07.267Z,75.30
2019-01-19T19:12:23.587Z,74.99
2019-01-19T19:15:39.291Z,74.96
2019-01-19T19:19:05.267Z,75.67
2019-01-19T19:22:45.981Z,76.14
2019-01-19T19:26:36.790Z,75.70
2019-01-19T19:29:54.076Z,75.04
2019-01-19T19:33:17.217Z,74.94
2019-01-19T19:36:31.061Z,75.22
2019-01-19T19:39:32.129Z,75.21
2019-01-19T19:42:34.198Z,75.37
2019-01-19T19:46:16.188Z,75.97
2019-01-19T19:49:53.897Z,75.35
2019-01-19T19:52:27.923Z,75.31
2019-01-19T19:54:52.140Z,75.09
2019-01-19T19:57:20.569Z,75.40
2019-01-19T19:59:48.941Z,75.37
2019-01-19T20:02:18.607Z,75.43
2019-01-19T20:04:46.797Z,75.73
2019-01-19T20:07:14.965Z,75.41
2019-01-19T20:09:43.380Z,75.63
2019-01-19T20:12:11.616Z,75.55
2019-01-19T20:14:39.627Z,75.12
2019-01-19T20:17:07.937Z,75.30
2019-01-19T20:19:40.558Z,75.34
2019-01-19T20:22:08.830Z,76.10
2019-01-19T20:24:38.525Z,75.74
2019-01-19T20:27:06.432Z,75.44
2019-01-19T20:29:38.703Z,75.59
2019-01-19T20:32:06.677Z,75.78
2019-01-19T20:34:34.914Z,75.44
2019-01-19T20:37:06.423Z,75.68
2019-01-19T20:39:35.284Z,75.89
2019-01-19T20:42:03.853Z,76.04
2019-01-19T20:44:32.042Z,76.30
2019-01-19T20:47:02.893Z,75.76
2019-01-19T20:49:31.131Z,75.98
2019-01-19T20:51:59.685Z,75.98
2019-01-19T20:54:28.358Z,75.62
2019-01-19T20:56:59.034Z,75.76
2019-01-19T20:59:27.068Z,76.34
2019-01-19T21:01:55.392Z,76.17
2019-01-19T21:04:25.915Z,76.41
2019-01-19T21:06:54.207Z,76.59
2019-01-19T21:09:22.487Z,76.70
2019-01-19T21:11:50.462Z,76.56
2019-01-19T21:14:18.611Z,76.63
2019-01-19T21:16:46.795Z,76.70
2019-01-19T21:19:14.921Z,77.57
2019-01-19T21:21:43.323Z,78.18
2019-01-19T21:24:11.640Z,79.14
2019-01-19T21:26:40.545Z,77.75
2019-01-19T21:29:08.491Z,77.18
2019-01-19T21:31:36.560Z,77.25
2019-01-19T21:34:04.523Z,77.81
2019-01-19T21:36:32.530Z,78.68
2019-01-19T21:39:00.667Z,79.78
2019-01-19T21:41:30.481Z,78.10
2019-01-19T21:43:58.719Z,78.78
2019-01-19T21:46:27.243Z,77.42
2019-01-19T21:48:56.128Z,78.09
2019-01-19T21:51:24.601Z,78.44
2019-01-19T21:53:52.542Z,78.83
2019-01-19T21:56:21.535Z,78.87
2019-01-19T21:58:50.797Z,79.58
2019-01-19T22:01:20.699Z,80.81
2019-01-19T22:03:48.933Z,80.50
2019-01-19T22:06:16.929Z,79.57
2019-01-19T22:08:45.235Z,78.83
2019-01-19T22:11:13.279Z,79.71
2019-01-19T22:13:41.394Z,79.80
2019-01-19T22:16:09.234Z,79.04
2019-01-19T22:18:37.563Z,79.39
2019-01-19T22:21:05.910Z,78.63
2019-01-19T22:23:35.055Z,79.46
2019-01-19T22:26:05.895Z,78.66
2019-01-19T22:28:34.393Z,78.78
2019-01-19T22:31:02.800Z,79.41
2019-01-19T22:33:31.100Z,79.04
2019-01-19T22:35:59.119Z,80.25
2019-01-19T22:38:27.397Z,80.33
2019-01-19T22:40:55.403Z,79.25
2019-01-19T22:43:29.681Z,79.67
2019-01-19T22:45:57.909Z,81.07
2019-01-19T22:48:26.072Z,78.45
2019-01-19T22:50:54.412Z,82.81
2019-01-19T22:53:22.768Z,82.61
2019-01-19T22:55:50.791Z,81.52
2019-01-19T22:58:18.763Z,84.09
2019-01-19T23:01:20.204Z,79.66
2019-01-19T23:03:49.427Z,78.51
2019-01-19T23:06:17.630Z,78.89
2019-01-19T23:08:45.993Z,78.35
2019-01-19T23:11:13.930Z,78.45
2019-01-19T23:13:42.044Z,78.79
2019-01-19T23:16:10.198Z,78.56
2019-01-19T23:18:38.151Z,78.44
2019-01-19T23:21:06.163Z,79.73
2019-01-19T23:23:34.175Z,78.71
2019-01-19T23:26:02.930Z,79.84
2019-01-19T23:28:32.358Z,78.80
2019-01-19T23:31:00.368Z,79.61
2019-01-19T23:33:28.867Z,78.90
2019-01-19T23:35:56.869Z,79.88
2019-01-19T23:38:25.146Z,80.09
2019-01-19T23:40:53.141Z,81.02
2019-01-19T23:43:22.504Z,79.33
2019-01-19T23:45:50.539Z,80.53
2019-01-19T23:48:18.441Z,79.80
2019-01-19T23:50:46.797Z,79.38
2019-01-19T23:53:14.816Z,79.23
2019-01-19T23:55:43.049Z,79.61
2019-01-19T23:58:11.322Z,78.98
